Decoded Metar for CWLY (LYTTON (READAC) in BC, CANADA) (IATA:WLY) | Meteo·Mobile Aviation Weather
aviador You're here:

CWLY Decoded Metar

LYTTON (READAC) in BC, CANADA
Report Time2020-02-22 21:00:00
UTC Time2020-02-22 21:45:56
Flight Rules vfr VFR
WindCalm
Visibility9999 m
Phenomena:N/A
Clouds:Broken 070 Hf
Broken 084 Hf
Expected CloudBase > 800 ft AGL from Temp-Dew spread
Ceiling7,000 ft
Temp03°C (ISA -11)
Dew Point01°C (87% RH)
AAT1.2°C
QNH1022 hPa
Density Alt-735 ft
Elevation751 ft
Report Wrong Elevation
Raw Report
CWLY 222100Z AUTO 00000KT 9SM BKN070 BKN084 03/01 A3017 RMK
SLP223=

Extra information for CWLY:More info

Metar Taf Metar & Taf Last 4 Metars F.Rules Stats Wind Profile Meteogram Temp Stats Airport Information Weather charts Add Link Nearby VenuesMetar ALERT Operation Metar Decoded Social comments

CWLY Lytton Metcam